หน้าหลัก
METAR-TAF:

METAR-TAF

ท่าอากาศยาน :

อากาปุลโก, เม็กซิโก

ละติจูด: 16-46N, ลองจิจูด: 099-45W, ความสูง: 5 ม.

การสังเกตสภาพอากาศปัจจุบัน

รายงานได้ทำขึ้นเมื่อ 47 นาทีที่แล้ว ณ เวลา 18:48 UTC
ลม 11 นอตจากตะวันตก/ตะวันตกเฉียงใต้
อุณหภูมิ 29°C
ความชื้น 74%
ความกดอากาศ 1009 hPa
ทัศนวิสัย: 9.7 กม.
มีเมฆมาก มืดครึ้มที่ความสูง 30000 ฟุต

METAR: MMAA 151848Z 25011KT 6SM OVC300 29/24 A2979 RMK 8/007 HZY BINOVC

เวลา: 14:35 (19:35 UTC)

การพยากรณ์

รายงานได้ทำขึ้นเมื่อ 3 ชั่วโมงและ 3 นาทีที่แล้ว ณ เวลา 16:32 UTC
การพยากรณ์มีผลตั้งแต่วันที่ 15 ณ เวลา 18 UTC จนถึงวันที่ 16 ณ เวลา 18 UTC
ลม 12 นอตจากตะวันตก/ตะวันตกเฉียงใต้
ทัศนวิสัย: 9.7 กม.
มีเมฆเป็นส่วนมากเว้นเป็นระยะที่ความสูง 30000 ฟุต
เมฆหมอก
จาก 16 ณ เวลา 0300 UTC
ลม 5 นอตจากเหนือ/ตะวันตกเฉียงเหนือ
ทัศนวิสัย: 9.7 กม.
มีเมฆเป็นส่วนมากเว้นเป็นระยะที่ความสูง 20000 ฟุต
เมฆหมอก
จาก 16 ณ เวลา 1200 UTC
ลม นอตจากเหนือ
ทัศนวิสัย: 8.0 กม.
มีเมฆกระจายเป็นบางส่วนที่ความสูง 25000 ฟุต
เมฆหมอก,

TAF: MMAA 151632Z 1518/1618 24012KT 6SM HZ BKN300 TX31/1520Z TN24/1612Z FM160300 34005KT 6SM HZ BKN200 FM161200 00000KT 5SM HZ SCT250

สังเกตการณ์สภาพอากาศและพยากรณ์อากาศของสนามบินมากกว่า 4000 แห่ง (รายงาน METAR และ TAF).

สถานีที่ดูได้จะแสดงไว้ด้วยจุดสีเหลืองและสีแดงบนแผนที่.

เลื่อนเมาส์ไปเหนือจุดเพื่อดูชื่อสถานี.

แล้วคลิกเพื่อดูสังเกตการณ์และการพยากรณ์สภาพอากาศ.

ในการเปลี่ยนแผนที่: คลิกที่ปุ่มสีเขียวที่มีกากบาทสีดำเพื่อซูมเข้า; ที่ปุ่มสีเขียวที่มีขีดเพื่อซูมออก; หรือที่ลูกศรสีเขียวเพื่อไปยังแผนที่ที่อยู่ติดกัน.


METAR-TAF: